sensor_id;sensor_type;location;lat;lon;timestamp;P1;durP1;ratioP1;P2;durP2;ratioP2
6422;SDS011;3244;42.708;23.288;2023-02-12T00:01:37;14.67;;;8.47;;
6422;SDS011;3244;42.708;23.288;2023-02-12T00:04:04;13.17;;;8.10;;
6422;SDS011;3244;42.708;23.288;2023-02-12T00:06:30;9.70;;;7.33;;
6422;SDS011;3244;42.708;23.288;2023-02-12T00:08:57;10.00;;;7.80;;
6422;SDS011;3244;42.708;23.288;2023-02-12T00:11:25;8.70;;;7.03;;
6422;SDS011;3244;42.708;23.288;2023-02-12T00:13:53;8.90;;;7.13;;
6422;SDS011;3244;42.708;23.288;2023-02-12T00:16:23;9.30;;;7.30;;
6422;SDS011;3244;42.708;23.288;2023-02-12T00:18:51;13.90;;;7.90;;
6422;SDS011;3244;42.708;23.288;2023-02-12T00:21:19;12.17;;;7.77;;
6422;SDS011;3244;42.708;23.288;2023-02-12T00:23:46;13.27;;;8.03;;
6422;SDS011;3244;42.708;23.288;2023-02-12T00:26:13;10.20;;;7.70;;
6422;SDS011;3244;42.708;23.288;2023-02-12T00:28:42;12.00;;;7.97;;
6422;SDS011;3244;42.708;23.288;2023-02-12T00:31:11;10.67;;;8.30;;
6422;SDS011;3244;42.708;23.288;2023-02-12T00:33:41;11.40;;;7.82;;
6422;SDS011;3244;42.708;23.288;2023-02-12T00:36:08;11.17;;;7.73;;
6422;SDS011;3244;42.708;23.288;2023-02-12T00:38:38;16.00;;;7.83;;
6422;SDS011;3244;42.708;23.288;2023-02-12T00:41:05;12.23;;;7.67;;
6422;SDS011;3244;42.708;23.288;2023-02-12T00:43:32;11.97;;;7.97;;
6422;SDS011;3244;42.708;23.288;2023-02-12T00:45:58;13.05;;;7.40;;
6422;SDS011;3244;42.708;23.288;2023-02-12T00:48:25;9.93;;;7.90;;
6422;SDS011;3244;42.708;23.288;2023-02-12T00:50:53;12.40;;;7.90;;
6422;SDS011;3244;42.708;23.288;2023-02-12T00:53:20;12.70;;;7.50;;
6422;SDS011;3244;42.708;23.288;2023-02-12T00:55:46;9.40;;;8.43;;
6422;SDS011;3244;42.708;23.288;2023-02-12T00:58:13;12.87;;;7.33;;
6422;SDS011;3244;42.708;23.288;2023-02-12T01:00:40;12.67;;;8.77;;
6422;SDS011;3244;42.708;23.288;2023-02-12T01:03:07;10.50;;;7.93;;
6422;SDS011;3244;42.708;23.288;2023-02-12T01:05:34;13.40;;;8.07;;
6422;SDS011;3244;42.708;23.288;2023-02-12T01:08:03;10.47;;;8.23;;
6422;SDS011;3244;42.708;23.288;2023-02-12T01:10:30;12.43;;;7.93;;
6422;SDS011;3244;42.708;23.288;2023-02-12T01:12:57;17.60;;;8.77;;
6422;SDS011;3244;42.708;23.288;2023-02-12T01:15:24;14.10;;;8.73;;
6422;SDS011;3244;42.708;23.288;2023-02-12T01:17:51;13.00;;;7.93;;
6422;SDS011;3244;42.708;23.288;2023-02-12T01:20:20;12.17;;;8.43;;
6422;SDS011;3244;42.708;23.288;2023-02-12T01:22:48;12.70;;;8.47;;
6422;SDS011;3244;42.708;23.288;2023-02-12T01:25:17;11.87;;;8.07;;
6422;SDS011;3244;42.708;23.288;2023-02-12T01:27:44;12.80;;;8.30;;
6422;SDS011;3244;42.708;23.288;2023-02-12T01:30:11;13.63;;;8.33;;
6422;SDS011;3244;42.708;23.288;2023-02-12T01:32:39;15.43;;;8.50;;
6422;SDS011;3244;42.708;23.288;2023-02-12T01:35:06;15.23;;;9.17;;
6422;SDS011;3244;42.708;23.288;2023-02-12T01:37:35;13.73;;;9.33;;
6422;SDS011;3244;42.708;23.288;2023-02-12T01:40:02;15.97;;;9.17;;
6422;SDS011;3244;42.708;23.288;2023-02-12T01:42:31;16.17;;;9.70;;
6422;SDS011;3244;42.708;23.288;2023-02-12T01:48:11;16.23;;;10.67;;
6422;SDS011;3244;42.708;23.288;2023-02-12T01:50:40;15.88;;;8.98;;
6422;SDS011;3244;42.708;23.288;2023-02-12T01:53:07;14.63;;;8.57;;
6422;SDS011;3244;42.708;23.288;2023-02-12T01:55:34;14.03;;;9.23;;
6422;SDS011;3244;42.708;23.288;2023-02-12T01:58:02;11.90;;;9.13;;
6422;SDS011;3244;42.708;23.288;2023-02-12T02:00:30;11.63;;;8.63;;
6422;SDS011;3244;42.708;23.288;2023-02-12T02:02:57;16.87;;;10.43;;
6422;SDS011;3244;42.708;23.288;2023-02-12T02:05:27;13.17;;;8.43;;
6422;SDS011;3244;42.708;23.288;2023-02-12T02:08:03;13.70;;;9.57;;
6422;SDS011;3244;42.708;23.288;2023-02-12T02:10:30;13.07;;;9.43;;
6422;SDS011;3244;42.708;23.288;2023-02-12T02:12:57;18.47;;;9.33;;
6422;SDS011;3244;42.708;23.288;2023-02-12T02:15:44;18.97;;;10.70;;
6422;SDS011;3244;42.708;23.288;2023-02-12T02:18:15;15.77;;;10.87;;
6422;SDS011;3244;42.708;23.288;2023-02-12T02:21:00;16.57;;;11.50;;
6422;SDS011;3244;42.708;23.288;2023-02-12T02:23:58;17.80;;;11.27;;
6422;SDS011;3244;42.708;23.288;2023-02-12T02:29:46;14.30;;;11.00;;
6422;SDS011;3244;42.708;23.288;2023-02-12T02:32:34;17.67;;;11.17;;
6422;SDS011;3244;42.708;23.288;2023-02-12T02:35:09;17.73;;;11.07;;
6422;SDS011;3244;42.708;23.288;2023-02-12T02:37:43;20.80;;;11.10;;
6422;SDS011;3244;42.708;23.288;2023-02-12T02:40:15;16.67;;;10.67;;
6422;SDS011;3244;42.708;23.288;2023-02-12T02:42:47;18.27;;;11.30;;
6422;SDS011;3244;42.708;23.288;2023-02-12T02:45:21;18.83;;;12.03;;
6422;SDS011;3244;42.708;23.288;2023-02-12T02:47:54;16.70;;;11.53;;
6422;SDS011;3244;42.708;23.288;2023-02-12T02:50:26;17.73;;;12.10;;
6422;SDS011;3244;42.708;23.288;2023-02-12T02:52:56;19.67;;;11.33;;
6422;SDS011;3244;42.708;23.288;2023-02-12T02:55:28;18.70;;;11.47;;
6422;SDS011;3244;42.708;23.288;2023-02-12T02:57:59;18.00;;;12.67;;
6422;SDS011;3244;42.708;23.288;2023-02-12T03:00:34;17.83;;;11.03;;
6422;SDS011;3244;42.708;23.288;2023-02-12T03:03:05;17.77;;;12.13;;
6422;SDS011;3244;42.708;23.288;2023-02-12T03:05:36;14.63;;;10.27;;
6422;SDS011;3244;42.708;23.288;2023-02-12T03:08:07;22.27;;;11.70;;
6422;SDS011;3244;42.708;23.288;2023-02-12T03:10:38;19.80;;;11.57;;
6422;SDS011;3244;42.708;23.288;2023-02-12T03:13:09;20.43;;;11.97;;
6422;SDS011;3244;42.708;23.288;2023-02-12T03:15:42;19.50;;;13.30;;
6422;SDS011;3244;42.708;23.288;2023-02-12T03:18:13;20.90;;;13.67;;
6422;SDS011;3244;42.708;23.288;2023-02-12T03:20:46;27.97;;;14.40;;
6422;SDS011;3244;42.708;23.288;2023-02-12T03:23:17;20.40;;;13.73;;
6422;SDS011;3244;42.708;23.288;2023-02-12T03:25:51;23.13;;;13.20;;
6422;SDS011;3244;42.708;23.288;2023-02-12T03:28:21;18.30;;;12.10;;
6422;SDS011;3244;42.708;23.288;2023-02-12T03:30:56;26.27;;;13.47;;
6422;SDS011;3244;42.708;23.288;2023-02-12T03:33:28;20.67;;;12.47;;
6422;SDS011;3244;42.708;23.288;2023-02-12T03:36:05;22.23;;;13.47;;
6422;SDS011;3244;42.708;23.288;2023-02-12T03:38:40;20.40;;;11.97;;
6422;SDS011;3244;42.708;23.288;2023-02-12T03:41:12;17.00;;;12.00;;
6422;SDS011;3244;42.708;23.288;2023-02-12T03:43:47;21.07;;;12.37;;
6422;SDS011;3244;42.708;23.288;2023-02-12T03:46:20;20.90;;;12.90;;
6422;SDS011;3244;42.708;23.288;2023-02-12T03:48:55;18.13;;;11.93;;
6422;SDS011;3244;42.708;23.288;2023-02-12T03:51:28;16.30;;;11.40;;
6422;SDS011;3244;42.708;23.288;2023-02-12T03:53:59;19.87;;;13.07;;
6422;SDS011;3244;42.708;23.288;2023-02-12T03:56:28;20.35;;;12.80;;
6422;SDS011;3244;42.708;23.288;2023-02-12T03:59:00;23.73;;;12.10;;
6422;SDS011;3244;42.708;23.288;2023-02-12T04:01:29;21.63;;;13.38;;
6422;SDS011;3244;42.708;23.288;2023-02-12T04:03:57;20.70;;;12.20;;
6422;SDS011;3244;42.708;23.288;2023-02-12T04:06:26;21.60;;;12.50;;
6422;SDS011;3244;42.708;23.288;2023-02-12T04:08:54;21.77;;;12.07;;
6422;SDS011;3244;42.708;23.288;2023-02-12T04:11:25;16.58;;;10.77;;
6422;SDS011;3244;42.708;23.288;2023-02-12T04:14:00;21.83;;;13.30;;
6422;SDS011;3244;42.708;23.288;2023-02-12T04:16:43;19.58;;;11.73;;
6422;SDS011;3244;42.708;23.288;2023-02-12T04:19:14;19.58;;;12.20;;
6422;SDS011;3244;42.708;23.288;2023-02-12T04:21:48;20.40;;;12.07;;
6422;SDS011;3244;42.708;23.288;2023-02-12T04:24:31;18.87;;;12.27;;
6422;SDS011;3244;42.708;23.288;2023-02-12T04:27:08;22.77;;;12.43;;
6422;SDS011;3244;42.708;23.288;2023-02-12T04:29:44;20.05;;;11.75;;
6422;SDS011;3244;42.708;23.288;2023-02-12T04:32:17;21.20;;;13.15;;
6422;SDS011;3244;42.708;23.288;2023-02-12T04:34:51;24.25;;;13.40;;
6422;SDS011;3244;42.708;23.288;2023-02-12T04:37:23;23.20;;;12.67;;
6422;SDS011;3244;42.708;23.288;2023-02-12T04:39:56;20.43;;;14.20;;
6422;SDS011;3244;42.708;23.288;2023-02-12T04:42:25;19.95;;;13.20;;
6422;SDS011;3244;42.708;23.288;2023-02-12T04:44:52;21.23;;;11.95;;
6422;SDS011;3244;42.708;23.288;2023-02-12T04:47:20;17.85;;;12.75;;
6422;SDS011;3244;42.708;23.288;2023-02-12T04:49:47;21.40;;;13.40;;
6422;SDS011;3244;42.708;23.288;2023-02-12T04:52:13;21.60;;;12.40;;
6422;SDS011;3244;42.708;23.288;2023-02-12T04:54:40;19.43;;;12.50;;
6422;SDS011;3244;42.708;23.288;2023-02-12T04:57:07;20.02;;;12.23;;
6422;SDS011;3244;42.708;23.288;2023-02-12T04:59:34;16.80;;;11.37;;
6422;SDS011;3244;42.708;23.288;2023-02-12T05:02:01;18.70;;;10.75;;
6422;SDS011;3244;42.708;23.288;2023-02-12T05:04:29;19.75;;;11.68;;
6422;SDS011;3244;42.708;23.288;2023-02-12T05:06:56;18.23;;;11.23;;
6422;SDS011;3244;42.708;23.288;2023-02-12T05:09:22;15.93;;;11.47;;
6422;SDS011;3244;42.708;23.288;2023-02-12T05:11:49;18.30;;;11.23;;
6422;SDS011;3244;42.708;23.288;2023-02-12T05:14:16;16.13;;;10.55;;
6422;SDS011;3244;42.708;23.288;2023-02-12T05:16:43;17.10;;;10.60;;
6422;SDS011;3244;42.708;23.288;2023-02-12T05:19:10;14.60;;;9.63;;
6422;SDS011;3244;42.708;23.288;2023-02-12T05:21:38;17.73;;;10.27;;
6422;SDS011;3244;42.708;23.288;2023-02-12T05:24:05;14.70;;;10.37;;
6422;SDS011;3244;42.708;23.288;2023-02-12T05:26:31;16.90;;;10.23;;
6422;SDS011;3244;42.708;23.288;2023-02-12T05:28:58;15.17;;;10.50;;
6422;SDS011;3244;42.708;23.288;2023-02-12T05:31:25;14.63;;;9.63;;
6422;SDS011;3244;42.708;23.288;2023-02-12T05:33:52;20.43;;;12.20;;
6422;SDS011;3244;42.708;23.288;2023-02-12T05:36:19;18.43;;;11.40;;
6422;SDS011;3244;42.708;23.288;2023-02-12T05:38:51;16.73;;;10.73;;
6422;SDS011;3244;42.708;23.288;2023-02-12T05:41:22;20.43;;;11.50;;
6422;SDS011;3244;42.708;23.288;2023-02-12T05:43:50;16.52;;;11.88;;
6422;SDS011;3244;42.708;23.288;2023-02-12T05:46:17;14.60;;;11.07;;
6422;SDS011;3244;42.708;23.288;2023-02-12T05:48:45;19.70;;;10.93;;
6422;SDS011;3244;42.708;23.288;2023-02-12T05:51:13;15.93;;;10.75;;
6422;SDS011;3244;42.708;23.288;2023-02-12T05:53:42;19.23;;;12.40;;
6422;SDS011;3244;42.708;23.288;2023-02-12T05:56:11;22.73;;;12.03;;
6422;SDS011;3244;42.708;23.288;2023-02-12T05:58:39;19.50;;;13.23;;
6422;SDS011;3244;42.708;23.288;2023-02-12T06:01:08;21.67;;;12.80;;
6422;SDS011;3244;42.708;23.288;2023-02-12T06:03:36;19.23;;;13.00;;
6422;SDS011;3244;42.708;23.288;2023-02-12T06:06:03;18.83;;;11.80;;
6422;SDS011;3244;42.708;23.288;2023-02-12T06:08:29;23.10;;;12.57;;
6422;SDS011;3244;42.708;23.288;2023-02-12T06:10:58;18.27;;;12.57;;
6422;SDS011;3244;42.708;23.288;2023-02-12T06:13:28;21.53;;;13.23;;
6422;SDS011;3244;42.708;23.288;2023-02-12T06:15:55;18.47;;;11.80;;
6422;SDS011;3244;42.708;23.288;2023-02-12T06:18:22;19.23;;;11.87;;
6422;SDS011;3244;42.708;23.288;2023-02-12T06:20:49;17.70;;;11.37;;
6422;SDS011;3244;42.708;23.288;2023-02-12T06:23:18;15.27;;;10.57;;
6422;SDS011;3244;42.708;23.288;2023-02-12T06:25:45;18.63;;;10.50;;
6422;SDS011;3244;42.708;23.288;2023-02-12T06:28:12;16.53;;;11.57;;
6422;SDS011;3244;42.708;23.288;2023-02-12T06:30:40;15.53;;;10.00;;
6422;SDS011;3244;42.708;23.288;2023-02-12T06:33:07;13.90;;;10.23;;
6422;SDS011;3244;42.708;23.288;2023-02-12T06:35:34;15.07;;;10.53;;
6422;SDS011;3244;42.708;23.288;2023-02-12T06:38:01;16.52;;;10.55;;
6422;SDS011;3244;42.708;23.288;2023-02-12T06:40:28;15.77;;;10.43;;
6422;SDS011;3244;42.708;23.288;2023-02-12T06:42:55;20.30;;;11.20;;
6422;SDS011;3244;42.708;23.288;2023-02-12T06:45:22;14.43;;;9.60;;
6422;SDS011;3244;42.708;23.288;2023-02-12T06:47:50;13.87;;;9.87;;
6422;SDS011;3244;42.708;23.288;2023-02-12T06:50:17;21.67;;;13.63;;
6422;SDS011;3244;42.708;23.288;2023-02-12T06:52:44;21.77;;;12.20;;
6422;SDS011;3244;42.708;23.288;2023-02-12T06:55:11;18.77;;;11.47;;
6422;SDS011;3244;42.708;23.288;2023-02-12T06:57:37;15.25;;;11.55;;
6422;SDS011;3244;42.708;23.288;2023-02-12T07:00:05;32.97;;;17.63;;
6422;SDS011;3244;42.708;23.288;2023-02-12T07:02:32;20.00;;;11.30;;
6422;SDS011;3244;42.708;23.288;2023-02-12T07:05:00;14.10;;;9.50;;
6422;SDS011;3244;42.708;23.288;2023-02-12T07:07:27;17.40;;;11.70;;
6422;SDS011;3244;42.708;23.288;2023-02-12T07:09:54;22.83;;;11.95;;
6422;SDS011;3244;42.708;23.288;2023-02-12T07:12:21;15.40;;;10.63;;
6422;SDS011;3244;42.708;23.288;2023-02-12T07:14:47;17.10;;;9.93;;
6422;SDS011;3244;42.708;23.288;2023-02-12T07:17:14;16.17;;;10.25;;
6422;SDS011;3244;42.708;23.288;2023-02-12T07:19:41;13.95;;;10.10;;
6422;SDS011;3244;42.708;23.288;2023-02-12T07:22:09;20.00;;;11.30;;
6422;SDS011;3244;42.708;23.288;2023-02-12T07:24:36;14.30;;;10.07;;
6422;SDS011;3244;42.708;23.288;2023-02-12T07:27:03;15.40;;;11.25;;
6422;SDS011;3244;42.708;23.288;2023-02-12T07:29:30;14.98;;;10.38;;
6422;SDS011;3244;42.708;23.288;2023-02-12T07:31:56;15.43;;;10.50;;
6422;SDS011;3244;42.708;23.288;2023-02-12T07:34:23;15.53;;;11.43;;
6422;SDS011;3244;42.708;23.288;2023-02-12T07:36:50;14.25;;;9.63;;
6422;SDS011;3244;42.708;23.288;2023-02-12T07:39:18;15.73;;;10.03;;
6422;SDS011;3244;42.708;23.288;2023-02-12T07:41:45;18.45;;;11.90;;
6422;SDS011;3244;42.708;23.288;2023-02-12T07:44:12;17.20;;;10.13;;
6422;SDS011;3244;42.708;23.288;2023-02-12T07:46:39;18.13;;;11.67;;
6422;SDS011;3244;42.708;23.288;2023-02-12T07:49:10;19.23;;;11.75;;
6422;SDS011;3244;42.708;23.288;2023-02-12T07:51:38;21.93;;;12.90;;
6422;SDS011;3244;42.708;23.288;2023-02-12T07:54:05;23.70;;;14.07;;
6422;SDS011;3244;42.708;23.288;2023-02-12T07:56:34;18.50;;;11.93;;
6422;SDS011;3244;42.708;23.288;2023-02-12T07:59:04;29.83;;;16.73;;
6422;SDS011;3244;42.708;23.288;2023-02-12T08:01:34;23.53;;;14.43;;
6422;SDS011;3244;42.708;23.288;2023-02-12T08:04:03;22.50;;;14.87;;
6422;SDS011;3244;42.708;23.288;2023-02-12T08:06:32;22.17;;;14.17;;
6422;SDS011;3244;42.708;23.288;2023-02-12T08:09:01;20.93;;;14.03;;
6422;SDS011;3244;42.708;23.288;2023-02-12T08:11:30;19.13;;;13.37;;
6422;SDS011;3244;42.708;23.288;2023-02-12T08:13:59;28.93;;;14.83;;
6422;SDS011;3244;42.708;23.288;2023-02-12T08:16:26;43.90;;;22.87;;
6422;SDS011;3244;42.708;23.288;2023-02-12T08:18:54;21.53;;;13.03;;
6422;SDS011;3244;42.708;23.288;2023-02-12T08:21:22;15.83;;;11.30;;
6422;SDS011;3244;42.708;23.288;2023-02-12T08:23:50;24.80;;;14.47;;
6422;SDS011;3244;42.708;23.288;2023-02-12T08:26:20;25.13;;;14.60;;
6422;SDS011;3244;42.708;23.288;2023-02-12T08:28:48;20.87;;;12.10;;
6422;SDS011;3244;42.708;23.288;2023-02-12T08:31:19;20.27;;;13.23;;
6422;SDS011;3244;42.708;23.288;2023-02-12T08:33:48;23.00;;;14.13;;
6422;SDS011;3244;42.708;23.288;2023-02-12T08:36:19;19.17;;;12.33;;
6422;SDS011;3244;42.708;23.288;2023-02-12T08:38:47;21.43;;;13.47;;
6422;SDS011;3244;42.708;23.288;2023-02-12T08:41:15;20.33;;;13.57;;
6422;SDS011;3244;42.708;23.288;2023-02-12T08:43:43;29.52;;;15.65;;
6422;SDS011;3244;42.708;23.288;2023-02-12T08:46:11;22.37;;;13.83;;
6422;SDS011;3244;42.708;23.288;2023-02-12T08:48:40;22.60;;;14.67;;
6422;SDS011;3244;42.708;23.288;2023-02-12T08:51:09;21.40;;;14.30;;
6422;SDS011;3244;42.708;23.288;2023-02-12T08:53:37;23.03;;;15.07;;
6422;SDS011;3244;42.708;23.288;2023-02-12T08:56:05;26.20;;;14.70;;
6422;SDS011;3244;42.708;23.288;2023-02-12T08:58:33;22.80;;;14.00;;
6422;SDS011;3244;42.708;23.288;2023-02-12T09:01:00;24.60;;;14.68;;
6422;SDS011;3244;42.708;23.288;2023-02-12T09:03:27;21.87;;;14.63;;
6422;SDS011;3244;42.708;23.288;2023-02-12T09:05:55;26.23;;;15.35;;
6422;SDS011;3244;42.708;23.288;2023-02-12T09:08:22;26.40;;;15.33;;
6422;SDS011;3244;42.708;23.288;2023-02-12T09:10:49;23.50;;;15.00;;
6422;SDS011;3244;42.708;23.288;2023-02-12T09:13:15;23.98;;;14.90;;
6422;SDS011;3244;42.708;23.288;2023-02-12T09:15:43;23.40;;;15.60;;
6422;SDS011;3244;42.708;23.288;2023-02-12T09:18:10;21.73;;;14.77;;
6422;SDS011;3244;42.708;23.288;2023-02-12T09:20:39;38.53;;;22.33;;
6422;SDS011;3244;42.708;23.288;2023-02-12T09:23:10;43.88;;;19.50;;
6422;SDS011;3244;42.708;23.288;2023-02-12T09:25:38;31.27;;;17.43;;
6422;SDS011;3244;42.708;23.288;2023-02-12T09:28:06;25.77;;;16.50;;
6422;SDS011;3244;42.708;23.288;2023-02-12T09:30:33;25.47;;;16.83;;
6422;SDS011;3244;42.708;23.288;2023-02-12T09:33:01;41.97;;;18.10;;
6422;SDS011;3244;42.708;23.288;2023-02-12T09:35:28;102.70;;;45.40;;
6422;SDS011;3244;42.708;23.288;2023-02-12T09:37:54;32.13;;;19.10;;
6422;SDS011;3244;42.708;23.288;2023-02-12T09:40:24;22.30;;;15.65;;
6422;SDS011;3244;42.708;23.288;2023-02-12T09:43:02;23.83;;;16.25;;
6422;SDS011;3244;42.708;23.288;2023-02-12T09:45:36;24.80;;;15.63;;
6422;SDS011;3244;42.708;23.288;2023-02-12T09:48:11;26.60;;;15.53;;
6422;SDS011;3244;42.708;23.288;2023-02-12T09:50:52;27.90;;;16.83;;
6422;SDS011;3244;42.708;23.288;2023-02-12T09:53:22;31.37;;;17.73;;
6422;SDS011;3244;42.708;23.288;2023-02-12T09:55:53;25.73;;;16.40;;
6422;SDS011;3244;42.708;23.288;2023-02-12T09:58:22;25.52;;;16.73;;
6422;SDS011;3244;42.708;23.288;2023-02-12T10:00:54;24.63;;;16.50;;
6422;SDS011;3244;42.708;23.288;2023-02-12T10:03:21;30.60;;;17.70;;
6422;SDS011;3244;42.708;23.288;2023-02-12T10:05:50;26.97;;;16.83;;
6422;SDS011;3244;42.708;23.288;2023-02-12T10:08:36;25.23;;;16.60;;
6422;SDS011;3244;42.708;23.288;2023-02-12T10:11:20;26.43;;;16.73;;
6422;SDS011;3244;42.708;23.288;2023-02-12T10:13:58;25.93;;;15.53;;
6422;SDS011;3244;42.708;23.288;2023-02-12T10:16:37;29.40;;;16.83;;
6422;SDS011;3244;42.708;23.288;2023-02-12T10:19:19;26.90;;;18.53;;
6422;SDS011;3244;42.708;23.288;2023-02-12T10:21:54;21.77;;;15.80;;
6422;SDS011;3244;42.708;23.288;2023-02-12T10:24:35;26.13;;;16.80;;
6422;SDS011;3244;42.708;23.288;2023-02-12T10:27:19;31.42;;;18.88;;
6422;SDS011;3244;42.708;23.288;2023-02-12T10:29:53;27.75;;;18.10;;
6422;SDS011;3244;42.708;23.288;2023-02-12T10:32:23;39.05;;;22.02;;
6422;SDS011;3244;42.708;23.288;2023-02-12T10:34:55;31.15;;;18.38;;
6422;SDS011;3244;42.708;23.288;2023-02-12T10:37:25;28.77;;;18.30;;
6422;SDS011;3244;42.708;23.288;2023-02-12T10:39:58;29.73;;;18.33;;
6422;SDS011;3244;42.708;23.288;2023-02-12T10:42:33;31.17;;;17.93;;
6422;SDS011;3244;42.708;23.288;2023-02-12T10:45:03;28.17;;;17.98;;
6422;SDS011;3244;42.708;23.288;2023-02-12T10:47:31;32.10;;;18.90;;
6422;SDS011;3244;42.708;23.288;2023-02-12T10:49:59;30.27;;;19.08;;
6422;SDS011;3244;42.708;23.288;2023-02-12T10:52:30;29.05;;;19.15;;
6422;SDS011;3244;42.708;23.288;2023-02-12T10:55:11;29.20;;;19.80;;
6422;SDS011;3244;42.708;23.288;2023-02-12T10:57:51;26.83;;;17.73;;
6422;SDS011;3244;42.708;23.288;2023-02-12T11:00:22;28.15;;;17.08;;
6422;SDS011;3244;42.708;23.288;2023-02-12T11:03:02;31.08;;;17.77;;
6422;SDS011;3244;42.708;23.288;2023-02-12T11:05:45;30.27;;;17.35;;
6422;SDS011;3244;42.708;23.288;2023-02-12T11:08:25;24.30;;;18.02;;
6422;SDS011;3244;42.708;23.288;2023-02-12T11:10:56;25.02;;;17.50;;
6422;SDS011;3244;42.708;23.288;2023-02-12T11:13:30;30.70;;;19.45;;
6422;SDS011;3244;42.708;23.288;2023-02-12T11:15:57;26.73;;;18.05;;
6422;SDS011;3244;42.708;23.288;2023-02-12T11:18:26;29.38;;;18.08;;
6422;SDS011;3244;42.708;23.288;2023-02-12T11:20:57;29.02;;;17.83;;
6422;SDS011;3244;42.708;23.288;2023-02-12T11:23:27;27.40;;;16.88;;
6422;SDS011;3244;42.708;23.288;2023-02-12T11:25:56;25.80;;;17.50;;
6422;SDS011;3244;42.708;23.288;2023-02-12T11:28:25;32.03;;;18.58;;
6422;SDS011;3244;42.708;23.288;2023-02-12T11:30:54;34.20;;;18.90;;
6422;SDS011;3244;42.708;23.288;2023-02-12T11:33:24;25.48;;;16.63;;
6422;SDS011;3244;42.708;23.288;2023-02-12T11:35:56;26.60;;;16.85;;
6422;SDS011;3244;42.708;23.288;2023-02-12T11:38:35;28.75;;;18.25;;
6422;SDS011;3244;42.708;23.288;2023-02-12T11:41:06;23.85;;;15.98;;
6422;SDS011;3244;42.708;23.288;2023-02-12T11:43:44;27.33;;;17.42;;
6422;SDS011;3244;42.708;23.288;2023-02-12T11:46:13;35.00;;;20.70;;
6422;SDS011;3244;42.708;23.288;2023-02-12T11:48:45;27.15;;;17.35;;
6422;SDS011;3244;42.708;23.288;2023-02-12T11:51:16;30.13;;;17.63;;
6422;SDS011;3244;42.708;23.288;2023-02-12T11:53:46;30.77;;;18.23;;
6422;SDS011;3244;42.708;23.288;2023-02-12T11:56:15;27.08;;;18.65;;
6422;SDS011;3244;42.708;23.288;2023-02-12T11:58:43;28.45;;;16.58;;
6422;SDS011;3244;42.708;23.288;2023-02-12T12:01:13;27.58;;;17.30;;
6422;SDS011;3244;42.708;23.288;2023-02-12T12:03:47;29.25;;;18.30;;
6422;SDS011;3244;42.708;23.288;2023-02-12T12:06:28;23.27;;;17.23;;
6422;SDS011;3244;42.708;23.288;2023-02-12T12:09:02;33.72;;;20.88;;
6422;SDS011;3244;42.708;23.288;2023-02-12T12:11:37;26.60;;;17.90;;
6422;SDS011;3244;42.708;23.288;2023-02-12T12:14:13;31.05;;;18.17;;
6422;SDS011;3244;42.708;23.288;2023-02-12T12:16:46;26.60;;;18.85;;
6422;SDS011;3244;42.708;23.288;2023-02-12T12:19:37;28.08;;;17.17;;
6422;SDS011;3244;42.708;23.288;2023-02-12T12:22:22;30.70;;;18.35;;
6422;SDS011;3244;42.708;23.288;2023-02-12T12:25:04;26.65;;;18.23;;
6422;SDS011;3244;42.708;23.288;2023-02-12T12:27:40;25.02;;;17.70;;
6422;SDS011;3244;42.708;23.288;2023-02-12T12:33:41;29.75;;;17.58;;
6422;SDS011;3244;42.708;23.288;2023-02-12T12:36:19;27.75;;;18.65;;
6422;SDS011;3244;42.708;23.288;2023-02-12T12:39:15;27.63;;;18.48;;
6422;SDS011;3244;42.708;23.288;2023-02-12T12:42:00;27.45;;;17.95;;
6422;SDS011;3244;42.708;23.288;2023-02-12T12:44:44;24.80;;;17.25;;
6422;SDS011;3244;42.708;23.288;2023-02-12T12:47:28;26.25;;;17.65;;
6422;SDS011;3244;42.708;23.288;2023-02-12T12:50:13;25.55;;;17.75;;
6422;SDS011;3244;42.708;23.288;2023-02-12T12:56:01;27.48;;;17.50;;
6422;SDS011;3244;42.708;23.288;2023-02-12T12:58:37;29.35;;;19.13;;
6422;SDS011;3244;42.708;23.288;2023-02-12T13:01:33;29.27;;;19.58;;
6422;SDS011;3244;42.708;23.288;2023-02-12T13:04:20;99.68;;;46.05;;
6422;SDS011;3244;42.708;23.288;2023-02-12T13:07:07;38.10;;;22.17;;
6422;SDS011;3244;42.708;23.288;2023-02-12T13:09:45;30.42;;;19.02;;
6422;SDS011;3244;42.708;23.288;2023-02-12T13:12:32;29.23;;;18.98;;
6422;SDS011;3244;42.708;23.288;2023-02-12T13:15:12;30.38;;;19.30;;
6422;SDS011;3244;42.708;23.288;2023-02-12T13:17:48;31.67;;;19.00;;
6422;SDS011;3244;42.708;23.288;2023-02-12T13:20:26;30.83;;;19.92;;
6422;SDS011;3244;42.708;23.288;2023-02-12T13:23:05;27.23;;;17.48;;
6422;SDS011;3244;42.708;23.288;2023-02-12T13:25:39;26.33;;;17.65;;
6422;SDS011;3244;42.708;23.288;2023-02-12T13:28:13;24.15;;;17.45;;
6422;SDS011;3244;42.708;23.288;2023-02-12T13:30:48;25.15;;;16.55;;
6422;SDS011;3244;42.708;23.288;2023-02-12T13:33:18;26.02;;;17.90;;
6422;SDS011;3244;42.708;23.288;2023-02-12T13:35:48;29.00;;;16.95;;
6422;SDS011;3244;42.708;23.288;2023-02-12T13:38:20;25.60;;;16.70;;
6422;SDS011;3244;42.708;23.288;2023-02-12T13:40:50;31.17;;;19.90;;
6422;SDS011;3244;42.708;23.288;2023-02-12T13:43:26;40.42;;;24.35;;
6422;SDS011;3244;42.708;23.288;2023-02-12T13:46:07;30.55;;;18.80;;
6422;SDS011;3244;42.708;23.288;2023-02-12T13:48:49;33.20;;;21.73;;
6422;SDS011;3244;42.708;23.288;2023-02-12T13:51:27;27.02;;;18.40;;
6422;SDS011;3244;42.708;23.288;2023-02-12T13:54:09;29.92;;;18.27;;
6422;SDS011;3244;42.708;23.288;2023-02-12T13:56:42;29.77;;;18.92;;
6422;SDS011;3244;42.708;23.288;2023-02-12T14:02:25;41.47;;;22.88;;
6422;SDS011;3244;42.708;23.288;2023-02-12T14:05:19;50.05;;;24.42;;
6422;SDS011;3244;42.708;23.288;2023-02-12T14:07:49;35.70;;;21.20;;
6422;SDS011;3244;42.708;23.288;2023-02-12T14:10:20;32.17;;;20.73;;
6422;SDS011;3244;42.708;23.288;2023-02-12T14:12:49;34.03;;;19.95;;
6422;SDS011;3244;42.708;23.288;2023-02-12T14:15:28;34.22;;;22.42;;
6422;SDS011;3244;42.708;23.288;2023-02-12T14:41:26;31.50;;;19.67;;
6422;SDS011;3244;42.708;23.288;2023-02-12T14:47:11;30.98;;;19.45;;
6422;SDS011;3244;42.708;23.288;2023-02-12T14:49:43;30.03;;;20.67;;
6422;SDS011;3244;42.708;23.288;2023-02-12T14:52:14;30.40;;;20.40;;
6422;SDS011;3244;42.708;23.288;2023-02-12T14:54:44;33.50;;;21.27;;
6422;SDS011;3244;42.708;23.288;2023-02-12T14:57:21;30.25;;;20.27;;
6422;SDS011;3244;42.708;23.288;2023-02-12T14:59:51;37.80;;;21.83;;
6422;SDS011;3244;42.708;23.288;2023-02-12T15:02:24;40.78;;;22.23;;
6422;SDS011;3244;42.708;23.288;2023-02-12T15:04:52;34.00;;;21.00;;
6422;SDS011;3244;42.708;23.288;2023-02-12T15:07:26;39.10;;;22.92;;
6422;SDS011;3244;42.708;23.288;2023-02-12T15:09:57;31.90;;;21.20;;
6422;SDS011;3244;42.708;23.288;2023-02-12T15:12:32;32.67;;;21.53;;
6422;SDS011;3244;42.708;23.288;2023-02-12T15:15:03;36.42;;;21.90;;
6422;SDS011;3244;42.708;23.288;2023-02-12T15:17:39;33.40;;;22.05;;
6422;SDS011;3244;42.708;23.288;2023-02-12T15:20:12;31.20;;;21.13;;
6422;SDS011;3244;42.708;23.288;2023-02-12T15:22:46;34.17;;;20.98;;
6422;SDS011;3244;42.708;23.288;2023-02-12T15:25:16;43.90;;;22.75;;
6422;SDS011;3244;42.708;23.288;2023-02-12T15:27:49;37.83;;;22.30;;
6422;SDS011;3244;42.708;23.288;2023-02-12T15:30:17;37.63;;;22.27;;
6422;SDS011;3244;42.708;23.288;2023-02-12T15:32:48;36.47;;;23.70;;
6422;SDS011;3244;42.708;23.288;2023-02-12T15:35:19;47.77;;;26.73;;
6422;SDS011;3244;42.708;23.288;2023-02-12T15:37:50;55.65;;;32.63;;
6422;SDS011;3244;42.708;23.288;2023-02-12T15:40:17;65.17;;;35.07;;
6422;SDS011;3244;42.708;23.288;2023-02-12T15:42:50;39.60;;;24.40;;